createdAt,value
2022-09-23T00:03:07.481Z,100.00
2022-09-23T00:13:11.027Z,99.46
2022-09-23T00:23:14.217Z,100.00
2022-09-23T00:33:17.160Z,100.00
2022-09-23T00:43:20.573Z,100.00
2022-09-23T00:53:26.770Z,100.00
2022-09-23T01:03:29.854Z,100.00
2022-09-23T01:13:38.415Z,100.00
2022-09-23T01:24:08.975Z,100.00
2022-09-23T01:34:16.315Z,100.00
2022-09-23T01:44:19.094Z,100.00
2022-09-23T01:54:38.830Z,100.00
2022-09-23T02:05:26.092Z,100.00
2022-09-23T02:15:35.084Z,100.00
2022-09-23T02:25:56.996Z,100.00
2022-09-23T02:36:10.106Z,100.00
2022-09-23T02:46:13.410Z,100.00
2022-09-23T02:56:22.054Z,100.00
2022-09-23T03:06:46.662Z,100.00
2022-09-23T03:17:41.742Z,100.00
2022-09-23T03:27:45.691Z,100.00
2022-09-23T03:37:57.273Z,100.00
2022-09-23T03:48:01.000Z,100.00
2022-09-23T03:58:04.864Z,100.00
2022-09-23T04:08:07.733Z,100.00
2022-09-23T04:18:10.652Z,100.00
2022-09-23T04:28:13.749Z,100.00
2022-09-23T04:38:16.633Z,100.00
2022-09-23T04:48:19.928Z,100.00
2022-09-23T04:58:23.147Z,100.00
2022-09-23T05:08:26.474Z,100.00
2022-09-23T05:18:36.921Z,100.00
2022-09-23T05:28:40.575Z,100.00
2022-09-23T05:38:43.756Z,100.00
2022-09-23T05:48:47.321Z,99.75
2022-09-23T05:58:51.947Z,98.78
2022-09-23T06:08:54.917Z,96.43
2022-09-23T06:19:03.051Z,95.06
2022-09-23T06:29:12.133Z,93.26
2022-09-23T06:39:15.655Z,94.20
2022-09-23T06:49:21.633Z,94.90
2022-09-23T06:59:25.115Z,95.50
2022-09-23T07:09:28.066Z,95.25
2022-09-23T07:19:31.073Z,94.63
2022-09-23T07:29:44.770Z,93.49
2022-09-23T07:39:51.148Z,88.97
2022-09-23T07:49:54.224Z,87.92
2022-09-23T07:59:57.420Z,85.03
2022-09-23T08:10:01.833Z,76.17
2022-09-23T08:20:05.463Z,66.61
2022-09-23T08:30:09.020Z,64.49
2022-09-23T08:40:15.096Z,56.48
2022-09-23T08:50:28.704Z,57.66
2022-09-23T09:00:41.411Z,50.93
2022-09-23T09:10:49.168Z,51.93
2022-09-23T09:21:11.523Z,56.71
2022-09-23T09:31:22.243Z,71.07
2022-09-23T09:41:31.264Z,60.09
2022-09-23T09:51:35.740Z,58.11
2022-09-23T10:01:39.617Z,59.93
2022-09-23T10:12:02.026Z,62.56
2022-09-23T10:22:16.835Z,65.34
2022-09-23T10:32:31.831Z,67.03
2022-09-23T10:42:56.789Z,65.68
2022-09-23T10:53:12.543Z,63.68
2022-09-23T11:09:06.933Z,66.58
2022-09-23T11:19:41.083Z,63.45
2022-09-23T11:29:55.798Z,64.22
2022-09-23T11:40:15.655Z,64.97
2022-09-23T11:50:49.104Z,65.76
2022-09-23T12:01:13.590Z,68.54
2022-09-23T12:11:51.306Z,71.94
2022-09-23T12:22:14.414Z,78.25
2022-09-23T12:32:21.628Z,77.14
2022-09-23T12:42:30.141Z,79.69
2022-09-23T12:52:36.120Z,74.78
2022-09-23T13:02:47.153Z,71.65
2022-09-23T13:12:54.230Z,68.18
2022-09-23T13:23:16.027Z,71.76
2022-09-23T13:33:41.803Z,72.01
2022-09-23T13:43:59.784Z,72.91
2022-09-23T13:54:30.074Z,71.61
2022-09-23T14:04:51.351Z,70.42
2022-09-23T14:14:57.392Z,67.43
2022-09-23T14:25:00.497Z,68.29
2022-09-23T14:35:04.637Z,68.13
2022-09-23T14:45:15.490Z,71.36
2022-09-23T14:55:18.991Z,74.29
2022-09-23T15:05:31.005Z,73.04
2022-09-23T15:15:35.729Z,73.30
2022-09-23T15:25:41.685Z,72.91
2022-09-23T15:35:48.990Z,73.34
2022-09-23T15:45:57.306Z,73.54
2022-09-23T15:56:00.606Z,75.83
2022-09-23T16:06:04.271Z,78.82
2022-09-23T16:27:17.649Z,83.32
2022-09-23T16:37:21.391Z,87.13
2022-09-23T16:47:24.504Z,88.70
2022-09-23T16:57:28.056Z,90.75
2022-09-23T17:07:32.146Z,92.37
2022-09-23T17:17:37.611Z,94.32
2022-09-23T17:27:40.917Z,93.69
2022-09-23T17:37:43.907Z,93.35
2022-09-23T17:47:52.295Z,94.04
2022-09-23T17:57:55.241Z,94.19
2022-09-23T18:07:58.200Z,95.50
2022-09-23T18:18:01.139Z,97.91
2022-09-23T18:28:04.218Z,100.00
2022-09-23T18:38:07.164Z,100.00
2022-09-23T18:48:28.745Z,100.00
2022-09-23T18:58:32.535Z,100.00
2022-09-23T19:08:36.791Z,100.00
2022-09-23T19:18:41.673Z,100.00
2022-09-23T19:28:56.373Z,100.00
2022-09-23T19:39:06.083Z,100.00
2022-09-23T19:49:09.364Z,100.00
2022-09-23T19:59:15.248Z,100.00
2022-09-23T20:09:21.704Z,100.00
2022-09-23T20:19:25.066Z,100.00
2022-09-23T20:29:28.387Z,100.00
2022-09-23T20:39:31.927Z,100.00
2022-09-23T20:49:36.491Z,100.00
2022-09-23T20:59:40.667Z,100.00
2022-09-23T21:09:43.664Z,100.00
2022-09-23T21:19:46.826Z,100.00
2022-09-23T21:29:51.578Z,100.00
2022-09-23T21:40:13.208Z,100.00
2022-09-23T21:50:16.350Z,100.00
2022-09-23T22:00:19.295Z,100.00
2022-09-23T22:10:22.218Z,100.00
2022-09-23T22:20:25.555Z,100.00
2022-09-23T22:30:47.375Z,100.00
2022-09-23T22:40:50.321Z,100.00
2022-09-23T22:50:53.510Z,100.00
2022-09-23T23:01:00.094Z,100.00
2022-09-23T23:11:10.130Z,100.00
2022-09-23T23:21:15.353Z,100.00
2022-09-23T23:31:20.337Z,100.00
2022-09-23T23:41:23.725Z,100.00
2022-09-23T23:51:27.480Z,100.00
